Impacts TAF Board INFO
FOR SITUATIONAL AWARENESS. NOT TO BE USED FOR FLIGHT PLANNING PURPOSES.
IDs:

KFLL - Ft Lauderdale-Hollyw, FL, US

Issued at 1120 UTC 24 Feb 2018
Updated at 1407 UTC 24 Feb 2018
Potential Impact None Slight Moderate High
Time1353Z 24/15Z 24/16Z 24/17Z 24/18Z 24/19Z 24/20Z 24/21Z 24/22Z 24/23Z 25/00Z 25/01Z 25/02Z 25/03Z>>
Type OBS PRVL PRVL PRVL PRVL PRVL PRVL PRVL PRVL PRVL PRVL PRVL PRVL PRVL
VIS 10 >6 >6 >6 >6 >6 >6 >6 >6 >6 >6 >6 >6 >6
CIG -- -- -- -- -- -- -- -- -- -- 50 50 50 50
Cover FEW SCT SCT SCT SCT SCT SCT SCT SCT SCT BKN BKN BKN BKN
FltCat VFR VFR VFR VFR VFR VFR VFR VFR VFR VFR VFR VFR VFR VFR
WX -- -- -- -- -- -- -- -- -- -- -- -- -- --
WDir 110 120 120 120 120 120 120 120 120 120 120 120 120 120
WSpd 15 16 16 16 16 16 16 16 16 16 11 11 11 11
WGst -- -- -- -- -- -- -- -- -- -- -- -- -- --

Raw TAF
KFLL 241120Z 2412/2518 11012KT P6SM VCSH SCT025 BKN050
  FM241400 12016KT P6SM FEW025 SCT050
  FM250000 12011KT P6SM SCT025 BKN050
  FM250600 12009KT P6SM SCT025 BKN040
  FM251500 12013KT P6SM SCT030 SCT040


Raw METAR
KFLL 241353Z 11015KT 10SM FEW024 FEW033 24/21 A3022 RMK AO2 SLP234 T02440206
KFLL 241253Z 11012KT 10SM FEW023 SCT030 SCT042 24/20 A3021 RMK AO2 SLP229 T02440200
KFLL 241232Z 11014KT 10SM FEW023 SCT029 SCT042 24/20 A3021 RMK AO2 T02390200
KFLL 241209Z 11014KT 10SM SCT024 BKN029 BKN042 23/21 A3020 RMK AO2 T02330206
KFLL 241153Z 11014KT 10SM FEW025 SCT030 BKN040 23/21 A3020 RMK AO2 SLP225 60000 70012 T02330206 10233 20222 53004

METAR Board
Radar Display
Forecast Discussion

FOR SITUATIONAL AWARENESS. NOT TO BE USED FOR FLIGHT PLANNING PURPOSES.